Latest Weather Observations for Lochington

IDQ60801

Issued at 3:05 pm EST Wednesday 23 July 2014 (issued every 30 minutes, with the page automatically refreshed every 10 minutes)

About weather observations | Map of weather stations | Latest weather observations for QLD | Other Formats
Station Details ID: 035139 Name: LOCHINGTON Lat: -23.94 Lon: 147.53 Height: 267.19 m
Data from the previous 72 hours. | See also: Recent months at Lochington
Date/Time
EST
Temp
°C
App
Temp
°C
Dew
Point
Rel
Hum
%
Delta-T
°C
Wind Press
QNH
hPa
Press
MSL
hPa
Rain
since 9 am
mm
Dir
 
Spd
km/h
Gust
km/h
Spd
kts
Gust
kts
23/03:00pm 23.8 20.1 4.7 29 9.6 E 13 22 7 12 1016.8 1016.5 0.0
23/02:30pm 23.3 20.4 4.8 30 9.3 ENE 9 19 5 10 1016.9 - 0.0
23/02:00pm 22.9 18.1 4.9 31 9.0 E 19 22 10 12 1017.3 1017.0 0.0
23/01:30pm 22.9 20.3 6.2 34 8.6 NE 9 19 5 10 1017.8 - 0.0
23/01:00pm 22.5 18.9 5.0 32 8.8 NNE 13 20 7 11 1018.2 1017.9 0.0
23/12:30pm 21.5 18.0 5.4 35 8.1 NE 13 20 7 11 1019.0 - 0.0
23/12:00pm 21.8 18.7 5.7 35 8.1 NNE 11 19 6 10 1020.1 1019.8 0.0
23/11:30am 20.8 17.9 6.4 39 7.4 NNE 11 19 6 10 1020.8 - 0.0
23/11:00am 19.9 17.0 4.8 37 7.4 NE 9 17 5 9 1021.7 1021.4 0.0
23/10:30am 19.1 16.6 4.8 39 7.0 NNE 7 15 4 8 1022.3 - 0.0
23/10:00am 17.9 15.0 1.4 33 7.4 ENE 6 9 3 5 1022.5 1022.2 0.0
23/09:30am 16.3 13.2 0.4 34 7.0 E 6 9 3 5 1022.3 - 0.0
23/09:00am 15.3 12.2 -2.6 29 7.2 ESE 4 7 2 4 1022.3 1022.0 0.0
23/08:30am 11.6 9.1 -4.1 33 5.9 CALM 0 2 0 1 1022.2 - 0.0
23/08:00am 8.2 5.3 -4.2 41 4.5 WNW 2 4 1 2 1021.6 1021.3 0.0
23/07:30am 4.4 0.6 -5.4 49 3.3 NW 6 6 3 3 1021.6 - 0.0
23/07:00am 3.4 -0.1 -5.8 51 3.0 WNW 4 4 2 2 1020.6 1020.3 0.0
23/06:30am 3.9 1.2 -6.4 47 3.3 CALM 0 0 0 0 1020.5 - 0.0
23/06:00am 5.2 2.6 -4.9 48 3.4 S 0 0 0 0 1020.2 1019.9 0.0
23/05:30am 5.2 2.6 -5.2 47 3.5 CALM 0 2 0 1 1019.8 - 0.0
23/05:00am 4.6 1.2 -5.7 47 3.4 W 4 7 2 4 1019.5 1019.2 0.0
23/04:30am 5.5 1.7 -5.5 45 3.7 WNW 6 7 3 4 1019.2 - 0.0
23/04:00am 5.3 1.4 -6.6 42 3.9 WNW 6 7 3 4 1019.1 1018.8 0.0
23/03:30am 8.0 4.2 -5.4 38 4.7 NW 6 7 3 4 1019.1 - 0.0
23/03:00am 6.3 2.5 -5.6 42 4.0 WNW 6 7 3 4 1019.0 1018.7 0.0
23/02:30am 5.9 1.8 -6.6 40 4.1 WNW 7 9 4 5 1018.9 - 0.0
23/02:00am 5.7 1.8 -6.5 41 4.0 WNW 6 7 3 4 1018.9 1018.6 0.0
23/01:30am 5.5 2.7 -7.0 40 4.1 CALM 0 6 0 3 1019.0 - 0.0
23/01:00am 8.0 4.8 -7.3 33 5.1 ENE 2 6 1 3 1019.2 1018.9 0.0
23/12:30am 7.4 3.5 -7.0 35 4.8 WNW 6 7 3 4 1019.2 - 0.0
23/12:00am 6.8 3.3 -6.5 38 4.5 WNW 4 6 2 3 1019.3 1019.0 0.0
 
Date/Time
EST
Temp
°C
App
Temp
°C
Dew
Point
Rel
Hum
%
Delta-T
°C
Wind Press
QNH
hPa
Press
MSL
hPa
Rain
since 9 am
mm
Dir
 
Spd
km/h
Gust
km/h
Spd
kts
Gust
kts
22/11:30pm 8.4 4.5 -6.5 34 5.1 WNW 6 7 3 4 1019.4 - 0.0
22/11:00pm 7.0 3.4 -7.0 36 4.6 W 4 7 2 4 1019.4 1019.1 0.0
22/10:30pm 8.9 5.4 -6.1 34 5.2 WNW 4 4 2 2 1019.1 - 0.0
22/10:00pm 8.6 5.9 -6.0 35 5.1 CALM 0 2 0 1 1018.8 1018.5 0.0
22/09:30pm 9.5 5.6 -6.3 32 5.5 WNW 6 6 3 3 1018.8 - 0.0
22/09:00pm 10.5 7.1 -5.5 32 5.8 WNW 4 6 2 3 1018.9 1018.6 0.0
22/08:30pm 11.1 8.3 -6.7 28 6.3 CALM 0 0 0 0 1018.9 - 0.0
22/08:00pm 13.1 10.4 -5.9 26 7.0 CALM 0 0 0 0 1018.9 1018.6 0.0
22/07:30pm 14.8 12.1 -6.1 23 7.8 CALM 0 0 0 0 1018.6 - 0.0
22/07:00pm 15.0 12.2 -7.1 21 8.1 CALM 0 0 0 0 1018.4 1018.1 0.0
22/06:30pm 18.5 15.8 -6.2 18 9.6 CALM 0 4 0 2 1018.2 - 0.0
22/06:00pm 19.5 16.7 -7.0 16 10.2 CALM 0 0 0 0 1017.9 1017.6 0.0
22/05:30pm 22.3 18.8 -6.5 14 11.6 S 4 6 2 3 1017.7 - 0.0
22/05:00pm 23.0 19.1 -6.9 13 12.0 S 6 11 3 6 1017.5 1017.2 0.0
22/04:30pm 23.7 19.7 -7.4 12 12.5 S 6 15 3 8 1017.4 - 0.0
22/04:00pm 23.8 19.3 -7.3 12 12.5 SSE 9 17 5 9 1017.4 1017.1 0.0
22/03:30pm 24.1 20.2 -7.0 12 12.6 WSW 6 13 3 7 1017.4 - 0.0
22/03:00pm 24.1 20.0 -7.0 12 12.6 WSW 7 15 4 8 1017.5 1017.2 0.0
22/02:30pm 23.9 20.1 -5.2 14 12.2 W 6 11 3 6 1017.7 - 0.0
22/02:00pm 23.8 20.1 -4.4 15 12.0 SE 6 13 3 7 1018.1 1017.8 0.0
22/01:30pm 23.2 19.5 -4.8 15 11.7 E 6 11 3 6 1018.5 - 0.0
22/01:00pm 22.8 19.6 -3.5 17 11.2 SSE 4 7 2 4 1019.1 1018.8 0.0
22/12:30pm 23.0 19.6 -1.8 19 11.0 NE 6 20 3 11 1019.7 - 0.0
22/12:00pm 22.1 19.1 -1.9 20 10.5 NE 4 7 2 4 1020.5 1020.2 0.0
22/11:30am 20.9 17.9 -2.2 21 10.0 ENE 4 9 2 5 1021.1 - 0.0
22/11:00am 19.3 16.2 -2.3 23 9.1 E 4 9 2 5 1021.7 1021.4 0.0
22/10:30am 18.1 15.1 -2.2 25 8.6 ESE 4 7 2 4 1022.1 - 0.0
22/10:00am 16.8 14.1 -2.3 27 7.9 E 2 7 1 4 1022.4 1022.1 0.0
22/09:30am 14.1 11.4 -2.8 31 6.8 S 2 6 1 3 1022.6 - 0.0
22/09:00am 11.9 9.6 -2.7 36 5.7 CALM 0 0 0 0 1022.5 1022.2 0.0
22/08:30am 9.2 6.8 -3.3 41 4.7 CALM 0 2 0 1 1022.3 - 0.0
22/08:00am 6.4 3.6 -3.2 50 3.5 W 2 4 1 2 1022.3 1022.0 0.0
22/07:30am 3.6 0.3 -4.3 56 2.7 WNW 4 6 2 3 1022.0 - 0.0
22/07:00am 2.0 -1.4 -5.2 59 2.5 WNW 4 6 2 3 1021.7 1021.4 0.0
22/06:30am 2.3 -1.0 -4.4 61 2.2 WSW 4 6 2 3 1021.4 - 0.0
22/06:00am 2.1 -0.9 -5.1 59 2.5 W 2 4 1 2 1021.1 1020.8 0.0
22/05:30am 2.0 -0.6 -5.2 59 2.5 CALM 0 0 0 0 1020.7 - 0.0
22/05:00am 2.7 -0.3 -5.2 56 2.6 W 2 4 1 2 1020.5 1020.2 0.0
22/04:30am 2.4 -1.5 -4.8 59 2.4 WNW 7 9 4 5 1020.3 - 0.0
22/04:00am 2.3 -1.7 -5.6 56 2.7 W 7 9 4 5 1020.2 1019.9 0.0
22/03:30am 3.9 1.3 -4.8 53 2.9 CALM 0 0 0 0 1020.3 - 0.0
22/03:00am 4.4 1.9 -4.1 54 2.9 CALM 0 0 0 0 1020.1 1019.8 0.0
22/02:30am 4.5 2.0 -4.2 53 3.0 CALM 0 2 0 1 1020.1 - 0.0
22/02:00am 4.5 1.2 -4.7 51 3.1 WNW 4 4 2 2 1020.1 1019.8 0.0
22/01:30am 5.2 1.9 -4.1 51 3.2 WNW 4 6 2 3 1020.3 - 0.0
22/01:00am 4.3 0.9 -4.9 51 3.1 WNW 4 6 2 3 1020.4 1020.1 0.0
22/12:30am 4.9 1.5 -4.9 49 3.3 WNW 4 6 2 3 1020.3 - 0.0
22/12:00am 5.4 2.9 -4.4 49 3.4 CALM 0 4 0 2 1020.3 1020.0 0.0
 
Date/Time
EST
Temp
°C
App
Temp
°C
Dew
Point
Rel
Hum
%
Delta-T
°C
Wind Press
QNH
hPa
Press
MSL
hPa
Rain
since 9 am
mm
Dir
 
Spd
km/h
Gust
km/h
Spd
kts
Gust
kts
21/11:30pm 5.8 3.2 -5.2 45 3.8 CALM 0 0 0 0 1020.5 - 0.0
21/11:00pm 6.7 4.1 -4.7 44 4.0 CALM 0 0 0 0 1020.7 1020.4 0.0
21/10:30pm 8.5 6.1 -3.3 43 4.4 CALM 0 0 0 0 1021.0 - 0.0
21/10:00pm 7.9 4.9 -5.2 39 4.6 NW 2 2 1 1 1021.0 1020.7 0.0
21/09:30pm 8.2 4.3 -4.9 39 4.7 NW 7 9 4 5 1021.0 - 0.0
21/09:00pm 9.4 6.5 -4.5 37 5.0 N 2 4 1 2 1021.0 1020.7 0.0
21/08:30pm 10.1 7.6 -3.9 37 5.2 CALM 0 0 0 0 1020.9 - 0.0
21/08:00pm 11.1 8.6 -4.1 34 5.7 CALM 0 0 0 0 1020.7 1020.4 0.0
21/07:30pm 12.8 10.4 -3.5 32 6.3 CALM 0 0 0 0 1020.5 - 0.0
21/07:00pm 16.0 13.3 -2.5 28 7.6 SW 2 2 1 1 1020.4 1020.1 0.0
21/06:30pm 16.8 13.7 -2.3 27 7.9 SW 4 4 2 2 1020.1 - 0.0
21/06:00pm 17.8 14.3 -3.0 24 8.6 WSW 6 6 3 3 1019.8 1019.5 0.0
21/05:30pm 21.1 18.4 -2.7 20 10.2 W 2 4 1 2 1019.3 - 0.0
21/05:00pm 21.6 18.5 -3.0 19 10.5 SSW 4 4 2 2 1019.0 1018.7 0.0
21/04:30pm 22.6 19.8 -2.9 18 11.0 N 2 6 1 3 1018.6 - 0.0
21/04:00pm 22.6 19.9 -2.2 19 10.9 ENE 2 9 1 5 1018.5 1018.2 0.0
21/03:30pm 23.3 20.7 -1.6 19 11.1 NNW 2 7 1 4 1018.5 - 0.0
21/03:00pm 21.8 18.1 -2.8 19 10.6 ESE 7 13 4 7 1018.5 1018.2 0.0
21/02:30pm 22.2 18.6 -1.8 20 10.6 NE 7 13 4 7 1018.6 - 0.0
21/02:00pm 21.2 17.8 -2.0 21 10.1 SW 6 11 3 6 1019.0 1018.7 0.0
21/01:30pm 21.7 18.3 -0.9 22 10.1 N 7 17 4 9 1019.3 - 0.0
21/01:00pm 20.8 17.4 -1.7 22 9.8 E 6 11 3 6 1019.8 1019.5 0.0
21/12:30pm 20.5 16.6 -1.3 23 9.6 NNE 9 17 5 9 1020.6 - 0.0
21/12:00pm 19.5 15.7 -1.0 25 8.9 NE 9 17 5 9 1021.2 1020.9 0.0
21/11:30am 19.0 15.6 -2.0 24 9.0 NE 6 13 3 7 1022.0 - 0.0
21/11:00am 17.9 14.3 -2.4 25 8.5 NNE 7 11 4 6 1022.5 1022.2 0.0
21/10:30am 17.1 13.4 -2.5 26 8.1 E 7 13 4 7 1022.5 - 0.0
21/10:00am 15.6 12.2 -2.3 29 7.3 E 6 7 3 4 1022.9 1022.6 0.0
21/09:30am 13.8 11.5 -2.6 32 6.6 CALM 0 0 0 0 1023.2 - 0.0
21/09:00am 10.6 8.2 -3.5 37 5.3 CALM 0 4 0 2 1023.2 1023.0 0.0
21/08:30am 8.2 5.3 -3.9 42 4.4 W 2 4 1 2 1023.1 - 0.0
21/08:00am 5.6 2.3 -4.3 49 3.4 WNW 4 6 2 3 1023.0 1022.7 0.0
21/07:30am 1.6 -1.8 -5.5 59 2.4 W 4 4 2 2 1022.7 - 0.0
21/07:00am -0.1 -4.0 -6.7 61 2.0 WNW 6 7 3 4 1022.6 1022.3 0.0
21/06:30am 0.2 -3.4 -7.3 57 2.3 WNW 4 6 2 3 1022.4 - 0.0
21/06:00am 0.0 -4.0 -7.5 57 2.3 WNW 6 7 3 4 1022.2 1021.9 0.0
21/05:30am 0.0 -3.6 -7.9 55 2.4 NW 4 7 2 4 1022.0 - 0.0
21/05:00am 0.6 -3.0 -7.4 55 2.5 WNW 4 6 2 3 1021.6 1021.3 0.0
21/04:30am 0.8 -3.2 -7.2 55 2.5 WNW 6 7 3 4 1021.3 - 0.0
21/04:00am 0.6 -3.4 -7.4 55 2.5 WNW 6 7 3 4 1021.2 1020.9 0.0
21/03:30am 1.4 -1.8 -7.1 53 2.7 WNW 2 4 1 2 1021.3 - 0.0
21/03:00am 1.7 -2.3 -7.3 51 2.9 WNW 6 6 3 3 1021.1 1020.8 0.0
21/02:30am 2.4 -1.5 -6.4 52 2.9 WNW 6 7 3 4 1021.1 - 0.0
21/02:00am 1.1 -1.7 -7.4 53 2.7 CALM 0 0 0 0 1021.2 1020.9 0.0
21/01:30am 1.9 -2.3 -7.7 49 3.0 WNW 7 7 4 4 1021.2 - 0.0
21/01:00am 3.0 0.2 -7.2 47 3.4 CALM 0 0 0 0 1021.4 1021.1 0.0
21/12:30am 4.4 1.3 -5.9 47 3.4 SE 2 4 1 2 1021.6 - 0.0
21/12:00am 6.5 3.6 -4.6 45 3.9 WNW 2 4 1 2 1021.8 1021.5 0.0
 
Date/Time
EST
Temp
°C
App
Temp
°C
Dew
Point
Rel
Hum
%
Delta-T
°C
Wind Press
QNH
hPa
Press
MSL
hPa
Rain
since 9 am
mm
Dir
 
Spd
km/h
Gust
km/h
Spd
kts
Gust
kts
20/11:30pm 5.0 1.5 -5.9 45 3.6 W 4 6 2 3 1021.6 - 0.0
20/11:00pm 5.6 2.1 -6.3 42 3.9 W 4 6 2 3 1021.6 1021.3 0.0
20/10:30pm 6.1 2.2 -6.1 41 4.1 NW 6 7 3 4 1021.9 - 0.0
20/10:00pm 6.5 2.4 -6.8 38 4.4 WNW 7 9 4 5 1022.0 1021.7 0.0
20/09:30pm 7.7 3.6 -6.4 36 4.8 WNW 7 9 4 5 1022.0 - 0.0
20/09:00pm 8.4 4.8 -6.9 33 5.2 WNW 4 6 2 3 1021.9 1021.6 0.0
20/08:30pm 9.3 6.5 -6.9 31 5.6 CALM 0 4 0 2 1021.7 - 0.0
20/08:00pm 12.0 8.6 -5.0 30 6.3 NE 4 6 2 3 1021.6 1021.3 0.0
20/07:30pm 14.0 10.3 -4.7 27 7.2 E 6 7 3 4 1021.2 - 0.0
20/07:00pm 13.4 9.9 -6.2 25 7.2 E 4 4 2 2 1020.9 1020.6 0.0
20/06:30pm 14.8 11.3 -6.1 23 7.8 ESE 4 7 2 4 1020.8 - 0.0
20/06:00pm 16.6 13.8 -7.1 19 8.8 CALM 0 0 0 0 1020.3 1020.0 0.0
20/05:30pm 18.8 15.9 -7.5 16 10.0 CALM 0 0 0 0 1019.8 - 0.0
20/05:00pm 19.8 16.2 -7.5 15 10.5 E 4 4 2 2 1019.6 1019.3 0.0
20/04:30pm 20.3 16.7 -7.1 15 10.7 SE 4 7 2 4 1019.4 - 0.0
20/04:00pm 20.4 16.8 -7.1 15 10.7 S 4 7 2 4 1019.1 1018.8 0.0
20/03:30pm 20.2 16.3 -6.4 16 10.5 N 6 11 3 6 1019.0 - 0.0

Other Formats:

Comma delimited format used in spreadsheet applications
http://www.bom.gov.au/fwo/IDQ60801/IDQ60801.94399.axf

JavaScript Object Notation format (JSON) in row-major order
http://www.bom.gov.au/fwo/IDQ60801/IDQ60801.94399.json